Time;durP1;ratioP1;P1;durP2;ratioP2;P2;SDS_P1;SDS_P2;PMS_P1;PMS_P2;Temp;Humidity;BMP_temperature;BMP_pressure;BME280_temperature;BME280_humidity;BME280_pressure;Samples;Min_cycle;Max_cycle;Signal;HPM_P1;HPM_P2
2021/07/04 06:13:30;;;;;;;9.00;7.40;;;24.40;96.20;;;;;;4963941;28;20061;-64
2021/07/04 06:15:55;;;;;;;13.23;7.72;;;24.40;94.80;;;;;;5010842;28;20038;-63
2021/07/04 06:18:21;;;;;;;9.23;8.30;;;24.60;94.00;;;;;;5014004;28;20041;-63
2021/07/04 06:20:46;;;;;;;11.88;9.82;;;24.70;93.60;;;;;;5038863;28;20060;-63
2021/07/04 06:23:12;;;;;;;11.20;8.18;;;24.80;93.40;;;;;;5013671;28;20038;-63
2021/07/04 06:25:37;;;;;;;9.73;7.90;;;24.90;93.20;;;;;;5020267;28;20491;-63
2021/07/04 06:28:04;;;;;;;10.73;8.90;;;25.00;92.70;;;;;;5016092;28;20099;-63
2021/07/04 06:30:30;;;;;;;11.48;7.97;;;24.80;92.90;;;;;;5015159;28;20053;-64
2021/07/04 06:32:56;;;;;;;10.65;8.95;;;25.00;92.20;;;;;;5015738;28;20046;-63
2021/07/04 06:35:22;;;;;;;9.52;8.30;;;24.80;92.80;;;;;;5014840;28;20036;-63
2021/07/04 06:37:47;;;;;;;9.35;8.45;;;24.80;92.80;;;;;;5010011;28;20100;-64
2021/07/04 06:40:14;;;;;;;10.23;7.95;;;24.90;92.20;;;;;;5005622;28;20057;-63
2021/07/04 06:42:40;;;;;;;10.25;9.25;;;25.00;91.90;;;;;;5019048;28;20449;-62
2021/07/04 06:45:10;;;;;;;13.15;8.88;;;25.10;92.10;;;;;;5011039;28;20163;-63
2021/07/04 06:47:40;;;;;;;7.90;7.22;;;25.10;91.90;;;;;;5030797;28;20426;-63
2021/07/04 06:50:06;;;;;;;10.43;7.75;;;25.30;90.40;;;;;;5014219;28;20033;-64
2021/07/04 06:52:32;;;;;;;8.52;7.65;;;25.20;91.00;;;;;;5022121;28;20041;-63
2021/07/04 06:54:58;;;;;;;10.07;7.38;;;25.30;90.80;;;;;;5040935;28;20037;-64
2021/07/04 06:57:29;;;;;;;7.70;6.90;;;25.50;89.00;;;;;;5015944;28;20034;-64
2021/07/04 07:00:01;;;;;;;10.40;7.50;;;25.60;88.40;;;;;;5018045;28;20044;-63
2021/07/04 07:02:27;;;;;;;9.52;7.05;;;25.50;87.80;;;;;;5024350;28;20115;-64
2021/07/04 07:04:53;;;;;;;7.93;6.57;;;25.60;86.70;;;;;;5009040;28;20042;-63
2021/07/04 07:07:20;;;;;;;10.52;7.70;;;25.80;85.40;;;;;;5030315;28;20049;-63
2021/07/04 07:09:48;;;;;;;9.88;7.18;;;25.80;85.30;;;;;;5016266;28;20046;-62
2021/07/04 07:12:14;;;;;;;9.35;6.45;;;25.80;84.70;;;;;;5027385;28;20044;-63
2021/07/04 07:14:40;;;;;;;10.07;7.43;;;25.80;84.20;;;;;;5032282;28;20044;-58
2021/07/04 07:17:05;;;;;;;10.50;7.90;;;25.60;85.70;;;;;;5028453;28;20037;-64
2021/07/04 07:19:31;;;;;;;9.85;8.55;;;25.60;86.50;;;;;;5025361;28;20042;-64
2021/07/04 07:21:57;;;;;;;10.10;7.50;;;25.60;86.40;;;;;;5039447;28;20406;-64
2021/07/04 07:24:22;;;;;;;7.80;6.63;;;25.80;86.20;;;;;;5034469;28;20037;-64
2021/07/04 07:26:48;;;;;;;10.45;6.55;;;26.10;83.70;;;;;;5034351;28;20045;-64
2021/07/04 07:29:14;;;;;;;9.27;6.55;;;26.00;82.90;;;;;;5030439;28;20095;-63
2021/07/04 07:31:40;;;;;;;8.02;7.22;;;26.00;82.30;;;;;;5034509;28;20060;-57
2021/07/04 07:34:05;;;;;;;7.05;6.50;;;25.90;82.70;;;;;;5034103;28;20394;-64
2021/07/04 07:36:31;;;;;;;6.57;5.75;;;25.90;80.20;;;;;;5037856;28;20371;-64
2021/07/04 07:38:57;;;;;;;8.25;6.90;;;26.00;80.80;;;;;;5045752;28;20124;-63
2021/07/04 07:41:22;;;;;;;7.78;6.03;;;26.10;79.00;;;;;;5029194;28;20049;-64
2021/07/04 07:43:48;;;;;;;7.25;6.55;;;26.10;77.20;;;;;;5036265;28;20142;-64
2021/07/04 07:46:15;;;;;;;8.70;6.43;;;26.10;78.90;;;;;;5037924;28;20473;-65
2021/07/04 07:48:41;;;;;;;8.48;6.50;;;26.10;78.50;;;;;;5043297;28;20045;-64
2021/07/04 07:51:06;;;;;;;8.05;5.90;;;26.20;78.50;;;;;;5043731;28;20443;-64
2021/07/04 07:53:33;;;;;;;7.15;6.00;;;26.30;75.50;;;;;;5036061;28;20042;-64
2021/07/04 07:55:59;;;;;;;6.38;5.20;;;26.40;73.90;;;;;;5036802;28;20437;-64
2021/07/04 07:58:25;;;;;;;9.50;6.38;;;26.40;72.50;;;;;;5038400;28;20099;-64
2021/07/04 08:00:50;;;;;;;6.60;5.82;;;26.30;73.20;;;;;;5034698;28;20037;-63
2021/07/04 08:03:16;;;;;;;6.70;5.22;;;26.40;72.30;;;;;;5027292;28;20037;-64
2021/07/04 08:05:42;;;;;;;9.98;5.85;;;26.40;71.10;;;;;;5049675;28;20115;-63
2021/07/04 08:08:08;;;;;;;7.78;5.60;;;26.50;71.80;;;;;;5032651;28;20460;-64
2021/07/04 08:10:34;;;;;;;6.55;5.38;;;26.60;69.90;;;;;;5050881;28;20036;-64
2021/07/04 08:13:00;;;;;;;6.25;5.30;;;26.70;70.00;;;;;;5040335;28;20056;-64
2021/07/04 08:15:26;;;;;;;5.90;5.30;;;26.60;68.90;;;;;;5042661;28;20044;-64
2021/07/04 08:17:52;;;;;;;7.75;5.43;;;26.50;69.00;;;;;;5025975;28;20043;-64
2021/07/04 08:20:17;;;;;;;9.45;5.90;;;26.50;69.50;;;;;;5005856;28;20573;-63
2021/07/04 08:22:44;;;;;;;8.20;5.72;;;26.40;69.70;;;;;;5037209;28;20509;-63
2021/07/04 08:25:11;;;;;;;6.68;5.65;;;26.30;69.60;;;;;;5048745;28;20386;-64
2021/07/04 08:27:37;;;;;;;7.30;6.63;;;26.30;70.30;;;;;;5043850;28;20388;-64
2021/07/04 08:30:05;;;;;;;7.93;6.28;;;26.20;71.90;;;;;;5045930;28;20041;-64
2021/07/04 08:32:30;;;;;;;8.88;6.05;;;26.30;72.20;;;;;;5045112;28;20510;-64
2021/07/04 08:34:56;;;;;;;9.63;6.15;;;26.20;72.10;;;;;;5035079;28;20049;-64
2021/07/04 08:37:21;;;;;;;9.02;6.82;;;26.10;72.90;;;;;;5030524;28;20037;-64
2021/07/04 08:39:47;;;;;;;8.07;7.22;;;26.10;72.20;;;;;;5022189;28;20057;-64
2021/07/04 08:42:13;;;;;;;7.28;6.63;;;26.10;73.20;;;;;;5029638;28;20047;-63
2021/07/04 08:44:46;;;;;;;8.82;6.30;;;26.10;73.60;;;;;;5024707;28;20025;-63
2021/07/04 08:47:12;;;;;;;8.07;7.20;;;26.20;74.30;;;;;;5038321;28;20042;-63
2021/07/04 08:49:38;;;;;;;9.35;6.95;;;26.10;74.70;;;;;;5026902;28;20851;-64
2021/07/04 08:52:03;;;;;;;9.40;7.57;;;26.20;76.30;;;;;;5031032;28;20041;-65
2021/07/04 08:54:29;;;;;;;7.65;6.95;;;26.10;75.20;;;;;;5025101;28;20046;-64
2021/07/04 08:56:55;;;;;;;7.82;6.65;;;26.30;74.80;;;;;;5026074;28;20189;-64
2021/07/04 08:59:20;;;;;;;8.43;7.55;;;26.40;73.70;;;;;;5027751;28;20533;-65
2021/07/04 09:01:48;;;;;;;11.50;7.63;;;26.40;73.30;;;;;;5028923;28;20030;-64
2021/07/04 09:04:21;;;;;;;10.75;8.02;;;26.30;74.80;;;;;;5023466;28;20048;-64
2021/07/04 09:06:55;;;;;;;9.27;7.55;;;26.40;75.50;;;;;;5040104;28;20037;-64
2021/07/04 09:09:27;;;;;;;8.68;6.90;;;26.60;76.20;;;;;;5035796;28;20057;-65
2021/07/04 09:12:07;;;;;;;8.15;7.30;;;26.60;73.20;;;;;;5034594;28;20037;-65
2021/07/04 09:14:45;;;;;;;9.40;7.07;;;26.80;73.10;;;;;;5027461;28;20064;-64
2021/07/04 09:17:16;;;;;;;8.20;7.40;;;26.70;73.60;;;;;;5044886;28;20048;-65
2021/07/04 09:19:53;;;;;;;9.43;7.03;;;26.70;73.00;;;;;;5036601;28;20056;-61
2021/07/04 09:22:27;;;;;;;7.47;6.68;;;26.50;73.40;;;;;;5047556;28;20037;-65
2021/07/04 09:24:52;;;;;;;9.68;7.60;;;26.30;75.20;;;;;;5033311;28;20105;-63
2021/07/04 09:27:18;;;;;;;10.73;7.50;;;26.30;75.70;;;;;;5030900;28;20053;-65
2021/07/04 09:29:52;;;;;;;7.47;6.65;;;26.30;76.60;;;;;;5029287;28;20398;-65
2021/07/04 09:32:29;;;;;;;8.00;6.00;;;26.30;75.90;;;;;;5037286;28;20045;-65
2021/07/04 09:35:05;;;;;;;5.60;5.20;;;26.00;73.60;;;;;;5042916;28;20490;-65
2021/07/04 09:37:42;;;;;;;6.57;6.03;;;26.10;74.20;;;;;;5038827;28;20083;-65
2021/07/04 09:40:22;;;;;;;7.82;6.28;;;26.20;75.90;;;;;;5032973;28;20504;-64
2021/07/04 09:42:59;;;;;;;8.07;7.18;;;26.10;75.80;;;;;;5000367;28;20049;-64
2021/07/04 09:45:47;;;;;;;9.82;8.52;;;26.20;78.60;;;;;;5033575;28;20041;-64
2021/07/04 09:48:18;;;;;;;10.90;8.52;;;26.10;79.10;;;;;;5041797;28;21231;-64
2021/07/04 09:50:50;;;;;;;8.23;7.20;;;26.10;81.00;;;;;;5048512;28;20033;-63
2021/07/04 09:53:16;;;;;;;11.05;8.32;;;26.20;80.30;;;;;;5044748;28;20037;-64
2021/07/04 09:55:42;;;;;;;9.63;8.13;;;26.30;79.00;;;;;;5036694;28;20443;-59
2021/07/04 09:58:10;;;;;;;9.80;8.43;;;26.40;79.20;;;;;;5032621;28;20087;-64
2021/07/04 10:00:39;;;;;;;9.50;7.88;;;26.50;78.20;;;;;;5035857;28;20033;-64
2021/07/04 10:03:15;;;;;;;8.98;8.02;;;26.50;78.00;;;;;;5023537;28;20045;-64
2021/07/04 10:05:56;;;;;;;8.27;7.47;;;26.60;77.50;;;;;;5028075;28;20112;-65
2021/07/04 10:08:34;;;;;;;9.52;8.40;;;26.90;75.20;;;;;;5014720;28;20451;-64
2021/07/04 10:11:04;;;;;;;8.27;7.57;;;26.90;73.80;;;;;;5032887;28;20480;-64
2021/07/04 10:13:31;;;;;;;10.05;7.78;;;26.80;74.40;;;;;;5024061;28;20099;-64
2021/07/04 10:15:57;;;;;;;9.38;8.57;;;26.80;74.50;;;;;;5032482;28;20099;-64
2021/07/04 10:18:23;;;;;;;9.52;8.63;;;26.70;74.90;;;;;;5023279;28;20063;-65
2021/07/04 10:20:50;;;;;;;10.10;9.05;;;26.80;75.40;;;;;;5040333;28;20045;-64
2021/07/04 10:23:19;;;;;;;10.60;8.40;;;26.60;75.00;;;;;;5036188;28;20033;-64
2021/07/04 10:25:46;;;;;;;8.68;7.78;;;26.70;75.40;;;;;;5035502;28;20056;-64
2021/07/04 10:28:15;;;;;;;10.25;8.90;;;26.70;74.40;;;;;;5031055;28;20442;-65
2021/07/04 10:30:41;;;;;;;10.25;8.60;;;26.70;74.10;;;;;;5043601;28;20040;-64
2021/07/04 10:33:21;;;;;;;10.90;9.13;;;26.50;75.10;;;;;;5036164;28;20537;-64
2021/07/04 10:36:07;;;;;;;9.15;7.53;;;26.50;75.70;;;;;;5036022;28;20410;-64
2021/07/04 10:38:54;;;;;;;9.35;8.45;;;26.30;74.80;;;;;;5039441;28;20094;-64
2021/07/04 10:41:32;;;;;;;9.48;8.15;;;26.40;77.50;;;;;;5016752;28;20037;-64
2021/07/04 10:44:09;;;;;;;8.35;7.55;;;26.40;76.90;;;;;;5024928;28;20041;-64
2021/07/04 10:46:43;;;;;;;12.93;8.57;;;26.40;78.30;;;;;;5037098;28;20045;-64
2021/07/04 10:49:17;;;;;;;8.80;8.00;;;26.50;75.10;;;;;;5022680;28;20037;-64
2021/07/04 10:52:02;;;;;;;11.95;9.88;;;26.60;75.80;;;;;;5027526;28;20124;-63
2021/07/04 10:54:50;;;;;;;11.40;10.27;;;26.70;76.80;;;;;;5041458;28;20076;-65
2021/07/04 10:57:28;;;;;;;9.27;8.48;;;26.60;78.50;;;;;;5033070;28;20048;-64
2021/07/04 11:00:00;;;;;;;8.30;7.50;;;26.40;77.20;;;;;;5038458;28;20044;-64
2021/07/04 11:02:44;;;;;;;10.40;9.32;;;26.40;75.50;;;;;;5036601;28;20072;-64
2021/07/04 11:05:11;;;;;;;11.10;10.07;;;26.50;77.50;;;;;;5027767;28;20333;-64
2021/07/04 11:07:52;;;;;;;10.82;9.80;;;26.40;78.10;;;;;;5034507;28;20048;-65
2021/07/04 11:10:23;;;;;;;10.40;9.40;;;26.50;78.10;;;;;;5013475;28;20072;-64
2021/07/04 11:12:50;;;;;;;10.07;9.13;;;26.30;78.30;;;;;;5039588;28;22251;-64
2021/07/04 11:15:21;;;;;;;10.88;9.80;;;26.20;79.90;;;;;;5033124;28;20048;-65
2021/07/04 11:17:59;;;;;;;12.52;10.63;;;26.20;80.50;;;;;;5044716;28;20085;-64
2021/07/04 11:20:25;;;;;;;11.43;10.25;;;26.20;83.90;;;;;;5043884;28;20099;-64
2021/07/04 11:23:00;;;;;;;10.48;9.32;;;26.20;82.50;;;;;;5028391;28;20076;-65
2021/07/04 11:25:56;;;;;;;10.82;9.80;;;26.20;85.20;;;;;;5042151;28;20494;-65
2021/07/04 11:28:28;;;;;;;12.38;10.07;;;26.30;85.50;;;;;;5008023;28;20046;-64
2021/07/04 11:30:53;;;;;;;12.38;9.95;;;26.10;88.30;;;;;;5033105;28;20032;-64
2021/07/04 11:33:25;;;;;;;10.00;9.00;;;26.00;87.10;;;;;;5034050;28;20037;-64
2021/07/04 11:35:52;;;;;;;10.60;9.65;;;26.10;88.60;;;;;;5036693;28;20107;-64
2021/07/04 11:38:20;;;;;;;12.75;9.88;;;25.90;87.60;;;;;;5033133;28;20102;-64
2021/07/04 11:40:47;;;;;;;11.82;10.77;;;25.80;88.20;;;;;;5025656;28;20041;-65
2021/07/04 11:43:19;;;;;;;12.07;10.70;;;25.80;87.80;;;;;;5037895;28;20033;-64
2021/07/04 11:45:59;;;;;;;14.35;12.65;;;25.80;90.30;;;;;;5025712;28;20507;-64
2021/07/04 11:48:49;;;;;;;13.88;12.43;;;25.70;92.70;;;;;;5037951;28;20032;-65
2021/07/04 11:51:27;;;;;;;14.43;12.70;;;25.70;97.00;;;;;;5037811;28;20045;-65
2021/07/04 11:53:56;;;;;;;15.88;13.52;;;25.80;97.80;;;;;;5048851;28;20505;-65
2021/07/04 11:56:22;;;;;;;16.58;14.27;;;25.60;97.20;;;;;;5057266;28;20441;-65
2021/07/04 11:58:48;;;;;;;16.20;14.07;;;25.50;96.80;;;;;;5031059;28;20042;-65
2021/07/04 12:01:23;;;;;;;17.50;15.75;;;25.40;97.10;;;;;;5022726;28;20053;-64
2021/07/04 12:03:54;;;;;;;17.20;15.43;;;25.30;99.50;;;;;;5033253;28;20033;-66
2021/07/04 12:06:20;;;;;;;18.33;16.38;;;25.20;99.90;;;;;;5030440;28;20046;-66
2021/07/04 12:09:01;;;;;;;21.45;17.83;;;25.00;99.90;;;;;;5043362;28;20068;-67
2021/07/04 12:11:59;;;;;;;21.98;19.30;;;24.70;99.90;;;;;;5045001;28;20044;-66
2021/07/04 12:14:32;;;;;;;26.73;20.13;;;24.30;99.90;;;;;;4976901;28;20036;-65
2021/07/04 12:17:17;;;;;;;32.88;19.63;;;23.80;99.90;;;;;;5034005;28;20125;-65
2021/07/04 12:19:49;;;;;;;30.50;16.35;;;23.10;99.90;;;;;;5025277;28;20460;-64
2021/07/04 12:22:19;;;;;;;20.00;16.05;;;22.70;99.90;;;;;;5043567;28;20103;-64
2021/07/04 12:24:45;;;;;;;47.65;22.20;;;22.80;99.90;;;;;;5050676;28;20044;-64
2021/07/04 12:27:11;;;;;;;23.27;19.38;;;22.70;99.90;;;;;;5045283;28;20169;-65
2021/07/04 12:30:15;;;;;;;26.17;19.90;;;22.60;99.90;;;;;;5039222;28;20045;-66
2021/07/04 12:32:47;;;;;;;36.03;24.48;;;22.40;99.90;;;;;;5017846;28;20442;-65
2021/07/04 12:35:40;;;;;;;26.80;23.63;;;22.50;99.90;;;;;;5046902;28;20068;-64
2021/07/04 12:38:29;;;;;;;35.20;25.90;;;22.60;99.90;;;;;;5059359;28;20456;-65
2021/07/04 12:41:17;;;;;;;31.95;27.02;;;22.70;99.90;;;;;;5004269;28;20087;-64
2021/07/04 12:43:43;;;;;;;34.35;26.48;;;22.30;99.90;;;;;;5037508;28;20037;-63
2021/07/04 12:46:22;;;;;;;67.20;32.63;;;22.40;99.90;;;;;;5040579;28;20034;-64
2021/07/04 12:48:50;;;;;;;41.67;28.52;;;22.30;99.90;;;;;;4999929;28;20087;-63
2021/07/04 12:51:24;;;;;;;34.88;26.02;;;22.20;99.90;;;;;;5046526;28;20072;-63
2021/07/04 12:53:49;;;;;;;36.17;25.60;;;21.80;99.90;;;;;;5044010;28;20041;-63
2021/07/04 12:56:23;;;;;;;27.33;22.63;;;22.20;99.90;;;;;;5043273;28;20056;-63
2021/07/04 12:58:57;;;;;;;39.97;26.15;;;21.80;99.90;;;;;;5031051;28;20045;-63
2021/07/04 13:01:38;;;;;;;31.15;24.05;;;21.80;99.90;;;;;;5035071;28;20049;-63
2021/07/04 13:04:04;;;;;;;26.00;22.50;;;22.00;99.90;;;;;;5031864;28;20455;-63
2021/07/04 13:09:19;;;;;;;46.78;28.05;;;22.00;99.90;;;;;;5032199;28;20125;-64
2021/07/04 13:11:57;;;;;;;28.73;25.30;;;21.80;99.90;;;;;;5043117;28;20474;-62
2021/07/04 13:14:32;;;;;;;29.40;26.20;;;21.80;99.90;;;;;;5023966;28;20100;-62
2021/07/04 13:16:58;;;;;;;34.60;27.27;;;22.00;99.90;;;;;;5027365;28;20029;-63
2021/07/04 13:19:27;;;;;;;29.95;25.42;;;22.30;99.90;;;;;;5042378;28;20136;-63
2021/07/04 13:21:54;;;;;;;36.30;28.60;;;22.00;99.90;;;;;;5047645;28;20091;-63
2021/07/04 13:24:22;;;;;;;31.58;23.92;;;21.80;99.90;;;;;;5036637;28;20041;-63
2021/07/04 13:26:51;;;;;;;24.35;21.85;;;21.90;99.90;;;;;;5049150;28;20115;-63
2021/07/04 13:29:31;;;;;;;27.33;24.35;;;22.20;99.90;;;;;;5031705;28;20397;-63
2021/07/04 13:32:15;;;;;;;29.17;24.65;;;22.40;99.90;;;;;;5026324;28;20044;-64
2021/07/04 13:35:07;;;;;;;18.45;15.75;;;22.40;99.90;;;;;;5022895;28;20035;-63
2021/07/04 13:37:33;;;;;;;19.58;16.23;;;22.10;99.90;;;;;;5006394;28;20045;-64
2021/07/04 13:40:20;;;;;;;21.15;18.65;;;22.20;99.90;;;;;;5039254;28;20347;-63
2021/07/04 13:42:47;;;;;;;19.45;17.42;;;22.50;99.90;;;;;;5048287;28;20065;-63
2021/07/04 13:45:33;;;;;;;16.58;14.90;;;22.60;99.90;;;;;;5031042;28;20053;-61
2021/07/04 13:48:13;;;;;;;17.77;15.98;;;22.50;99.90;;;;;;5027185;28;20124;-63
2021/07/04 13:50:40;;;;;;;18.25;16.35;;;22.60;99.90;;;;;;5027992;28;20056;-64
2021/07/04 13:53:08;;;;;;;19.35;17.35;;;22.50;99.90;;;;;;5029965;28;20037;-63
2021/07/04 13:55:33;;;;;;;19.33;17.40;;;22.60;99.90;;;;;;5021337;28;20456;-64
2021/07/04 13:57:59;;;;;;;19.40;17.60;;;22.70;99.90;;;;;;5031305;28;20029;-64
2021/07/04 14:00:26;;;;;;;21.30;19.10;;;22.80;99.90;;;;;;5038991;28;20456;-64
2021/07/04 14:02:52;;;;;;;18.05;16.20;;;22.80;99.90;;;;;;5040406;28;20042;-63
2021/07/04 14:05:18;;;;;;;11.73;10.63;;;22.50;99.90;;;;;;5046585;28;20037;-63
2021/07/04 14:07:44;;;;;;;9.38;8.57;;;22.30;99.90;;;;;;5034557;28;20135;-63
2021/07/04 14:10:10;;;;;;;9.13;8.23;;;21.80;99.90;;;;;;5044080;28;20420;-64
2021/07/04 14:12:36;;;;;;;7.55;6.78;;;21.60;99.90;;;;;;5026540;28;20033;-64
2021/07/04 14:15:02;;;;;;;5.50;5.00;;;21.50;99.90;;;;;;5041641;28;20089;-65
2021/07/04 14:17:28;;;;;;;5.03;4.63;;;21.50;99.90;;;;;;5037327;28;20040;-64
2021/07/04 14:19:54;;;;;;;4.35;4.05;;;21.50;99.90;;;;;;5037359;28;20040;-64
2021/07/04 14:22:22;;;;;;;5.10;4.70;;;21.50;99.90;;;;;;5030471;28;20045;-65
2021/07/04 14:24:48;;;;;;;4.95;4.28;;;21.50;99.90;;;;;;5027463;28;20048;-64
2021/07/04 14:27:14;;;;;;;4.72;4.32;;;21.30;99.90;;;;;;5039384;28;20044;-64
2021/07/04 14:29:39;;;;;;;5.43;4.93;;;21.30;99.90;;;;;;5039060;28;20032;-64
2021/07/04 14:32:05;;;;;;;6.00;5.40;;;21.40;99.90;;;;;;5039914;28;20041;-65
2021/07/04 14:34:31;;;;;;;5.28;4.88;;;21.20;99.90;;;;;;5032623;28;20076;-65
2021/07/04 14:36:57;;;;;;;5.50;4.97;;;21.20;99.90;;;;;;5025524;28;20085;-65
2021/07/04 14:39:23;;;;;;;6.97;6.32;;;21.40;99.90;;;;;;5029489;28;20037;-65
2021/07/04 14:41:49;;;;;;;6.63;6.03;;;21.50;99.90;;;;;;5041499;28;20041;-64
2021/07/04 14:44:14;;;;;;;6.00;5.40;;;21.60;99.90;;;;;;5036152;28;20187;-65
2021/07/04 14:46:40;;;;;;;6.30;5.80;;;21.70;99.90;;;;;;5042394;28;20123;-65
2021/07/04 14:49:09;;;;;;;5.47;4.95;;;21.70;99.90;;;;;;5039383;28;20140;-66
2021/07/04 14:51:39;;;;;;;6.50;5.97;;;21.90;99.90;;;;;;5045348;28;20042;-64
2021/07/04 14:54:06;;;;;;;5.60;5.20;;;22.00;99.90;;;;;;5037471;28;22720;-64
2021/07/04 14:56:32;;;;;;;5.03;4.63;;;22.10;99.90;;;;;;5040580;28;20068;-65
2021/07/04 14:58:58;;;;;;;5.35;4.90;;;22.00;99.90;;;;;;5039232;28;20494;-64
2021/07/04 15:01:25;;;;;;;4.80;4.40;;;21.90;99.90;;;;;;5041801;28;20107;-65
2021/07/04 15:03:52;;;;;;;5.53;5.07;;;22.00;99.90;;;;;;5030824;28;20037;-64
2021/07/04 15:06:18;;;;;;;5.47;4.80;;;22.00;99.90;;;;;;5055502;28;20037;-64
2021/07/04 15:08:44;;;;;;;5.75;5.15;;;21.80;99.90;;;;;;5026879;28;20576;-65
2021/07/04 15:11:11;;;;;;;5.93;5.32;;;22.00;99.90;;;;;;5046378;28;20119;-66
2021/07/04 15:13:37;;;;;;;6.00;5.45;;;21.90;99.90;;;;;;5029576;28;20045;-64
2021/07/04 15:16:04;;;;;;;6.38;5.78;;;21.80;99.90;;;;;;5032450;28;20033;-64
2021/07/04 15:18:29;;;;;;;6.20;5.70;;;22.00;99.90;;;;;;5029291;28;20062;-64
2021/07/04 15:20:57;;;;;;;5.05;4.25;;;22.00;99.90;;;;;;5025806;28;20083;-64
2021/07/04 15:23:23;;;;;;;208.90;31.63;;;21.90;99.90;;;;;;5034338;28;20613;-65
2021/07/04 15:25:49;;;;;;;27.45;9.02;;;22.20;99.90;;;;;;5031110;28;20037;-66
2021/07/04 15:28:15;;;;;;;59.35;11.10;;;21.90;99.90;;;;;;5023389;28;20060;-66
2021/07/04 15:30:40;;;;;;;17.48;8.48;;;21.60;99.90;;;;;;5022221;28;20121;-67
2021/07/04 15:33:06;;;;;;;26.67;9.80;;;21.40;99.90;;;;;;5037999;28;20037;-66
2021/07/04 15:35:32;;;;;;;34.97;10.18;;;21.00;99.90;;;;;;5026598;28;20038;-65
2021/07/04 15:37:58;;;;;;;16.85;8.68;;;20.90;99.90;;;;;;5037643;28;20152;-63
2021/07/04 15:40:23;;;;;;;17.05;8.80;;;20.80;99.90;;;;;;5032067;28;20044;-63
2021/07/04 15:42:50;;;;;;;11.13;8.52;;;21.00;99.90;;;;;;5034169;28;20033;-63
2021/07/04 15:45:15;;;;;;;10.82;8.00;;;20.90;99.90;;;;;;5005388;28;20065;-63
2021/07/04 15:47:42;;;;;;;7.70;6.93;;;20.90;99.90;;;;;;5041415;28;20475;-63
2021/07/04 15:50:10;;;;;;;8.77;7.88;;;20.70;99.90;;;;;;5038154;28;20052;-64
2021/07/04 15:52:35;;;;;;;6.95;5.70;;;20.80;99.90;;;;;;5035809;28;20679;-64
2021/07/04 15:55:05;;;;;;;7.28;6.47;;;20.90;99.90;;;;;;5045625;28;20122;-64
2021/07/04 15:57:32;;;;;;;8.18;6.60;;;20.90;99.90;;;;;;5041348;28;20104;-64
2021/07/04 15:59:57;;;;;;;8.52;6.68;;;21.00;99.90;;;;;;5036995;28;20064;-63
2021/07/04 16:02:23;;;;;;;7.43;6.32;;;20.90;99.90;;;;;;5045631;28;20142;-63
2021/07/04 16:04:49;;;;;;;10.48;6.72;;;20.90;99.90;;;;;;5044337;28;20055;-62
2021/07/04 16:07:14;;;;;;;6.20;5.25;;;21.40;99.90;;;;;;5036920;28;20053;-64
2021/07/04 16:09:40;;;;;;;6.43;5.82;;;21.40;99.90;;;;;;5033977;28;20036;-64
2021/07/04 16:12:07;;;;;;;6.50;5.88;;;21.70;99.90;;;;;;5027170;28;20026;-64
2021/07/04 16:14:32;;;;;;;5.38;4.88;;;21.70;99.90;;;;;;5037080;28;20502;-64
2021/07/04 16:16:58;;;;;;;5.22;4.72;;;21.70;99.90;;;;;;5024089;28;20049;-64
2021/07/04 16:19:24;;;;;;;5.78;5.05;;;21.50;99.90;;;;;;5028217;28;20443;-64
2021/07/04 16:21:49;;;;;;;5.68;4.97;;;21.70;99.90;;;;;;5026603;28;20475;-64
2021/07/04 16:24:16;;;;;;;5.32;4.88;;;21.60;99.90;;;;;;5028335;28;20034;-64
2021/07/04 16:26:41;;;;;;;4.80;4.40;;;21.60;99.90;;;;;;5025798;28;20061;-64
2021/07/04 16:29:10;;;;;;;8.48;4.95;;;21.60;99.90;;;;;;5030998;28;20526;-64
2021/07/04 16:31:37;;;;;;;5.90;5.30;;;21.60;99.90;;;;;;5030732;28;20068;-64
2021/07/04 16:34:04;;;;;;;5.78;5.28;;;21.70;99.90;;;;;;5045831;28;20064;-64
2021/07/04 16:36:30;;;;;;;4.95;4.40;;;21.40;99.90;;;;;;5030644;28;20483;-64
2021/07/04 16:39:03;;;;;;;4.50;4.10;;;21.40;99.90;;;;;;5026591;28;20102;-64
2021/07/04 16:41:29;;;;;;;5.43;4.93;;;21.60;99.90;;;;;;5027766;28;20026;-64
2021/07/04 16:43:55;;;;;;;5.80;5.22;;;21.40;99.90;;;;;;5029892;28;20063;-64
2021/07/04 16:46:21;;;;;;;4.45;4.03;;;22.00;99.90;;;;;;5032837;28;20437;-65
2021/07/04 16:48:46;;;;;;;4.70;4.22;;;22.00;99.90;;;;;;5048096;28;20037;-65
2021/07/04 16:51:13;;;;;;;4.60;4.20;;;22.00;99.90;;;;;;5029581;28;20049;-65
2021/07/04 16:53:39;;;;;;;4.35;4.03;;;22.30;99.90;;;;;;5033695;28;20126;-65
2021/07/04 16:56:05;;;;;;;5.32;4.22;;;22.00;99.90;;;;;;5033033;28;20077;-65
2021/07/04 16:58:30;;;;;;;4.00;3.70;;;22.30;99.90;;;;;;5040693;28;20056;-65
2021/07/04 17:00:56;;;;;;;3.90;3.67;;;22.30;99.90;;;;;;5042822;28;20049;-65
2021/07/04 17:03:21;;;;;;;4.07;3.67;;;22.40;99.90;;;;;;5033320;28;20525;-65
2021/07/04 17:05:47;;;;;;;4.97;3.70;;;22.50;99.90;;;;;;5030122;28;20041;-65
2021/07/04 17:08:13;;;;;;;3.75;3.45;;;22.80;99.90;;;;;;5037359;28;20582;-65
2021/07/04 17:10:39;;;;;;;3.38;3.08;;;22.70;99.90;;;;;;5033291;28;20403;-66
2021/07/04 17:13:05;;;;;;;3.50;3.30;;;22.60;99.90;;;;;;5024774;28;20429;-66
2021/07/04 17:15:33;;;;;;;3.60;3.30;;;22.60;99.90;;;;;;5039500;28;20053;-65
2021/07/04 17:18:00;;;;;;;4.28;3.78;;;22.80;99.90;;;;;;5034028;28;20030;-65
2021/07/04 17:20:26;;;;;;;4.03;3.63;;;23.70;99.90;;;;;;5028616;28;20060;-65
2021/07/04 17:22:52;;;;;;;5.72;4.20;;;23.40;99.90;;;;;;5031990;28;20029;-65
2021/07/04 17:25:18;;;;;;;3.92;3.63;;;23.10;99.90;;;;;;5024721;28;20453;-65
2021/07/04 17:27:45;;;;;;;4.10;3.70;;;22.90;99.90;;;;;;5045923;28;20060;-65
2021/07/04 17:30:14;;;;;;;4.28;3.97;;;23.00;99.90;;;;;;5032338;28;20466;-65
2021/07/04 17:32:40;;;;;;;3.50;3.20;;;22.90;99.90;;;;;;5047560;28;20041;-66
2021/07/04 17:35:06;;;;;;;4.28;3.97;;;22.90;99.90;;;;;;5042985;28;20448;-66
2021/07/04 17:37:32;;;;;;;4.18;3.78;;;23.10;99.90;;;;;;5032115;28;20040;-67
2021/07/04 17:39:57;;;;;;;5.15;4.50;;;23.40;99.90;;;;;;5030975;28;20041;-66
2021/07/04 17:42:23;;;;;;;4.30;3.90;;;23.50;99.90;;;;;;5053725;28;20048;-66
2021/07/04 17:44:49;;;;;;;5.00;4.50;;;23.40;99.90;;;;;;5032964;28;20120;-59
2021/07/04 17:47:15;;;;;;;4.80;3.90;;;23.50;99.90;;;;;;5042384;28;20041;-66
2021/07/04 17:49:40;;;;;;;4.22;3.67;;;23.40;99.90;;;;;;5011776;28;20037;-66
2021/07/04 17:52:07;;;;;;;4.30;3.60;;;23.20;99.90;;;;;;5035723;28;20037;-66
2021/07/04 17:54:32;;;;;;;4.50;4.05;;;23.10;99.90;;;;;;5044168;28;20052;-66
2021/07/04 17:56:58;;;;;;;3.38;3.08;;;23.10;99.90;;;;;;5035300;28;20040;-66
2021/07/04 17:59:23;;;;;;;3.70;3.40;;;22.80;99.90;;;;;;5030038;28;20479;-66
2021/07/04 18:02:29;;;;;;;4.05;3.58;;;22.80;99.90;;;;;;5040822;28;20032;-64
2021/07/04 18:04:55;;;;;;;4.13;3.83;;;22.70;99.90;;;;;;5012634;28;20041;-65
2021/07/04 18:07:20;;;;;;;3.50;3.20;;;22.70;99.90;;;;;;5023233;28;20096;-66
2021/07/04 18:09:48;;;;;;;3.60;3.30;;;22.60;99.90;;;;;;5038485;28;20041;-66
2021/07/04 18:12:14;;;;;;;3.53;3.25;;;22.60;99.90;;;;;;5030939;28;20061;-67
2021/07/04 18:14:40;;;;;;;4.50;4.10;;;22.60;99.90;;;;;;5028580;28;20135;-66
2021/07/04 18:17:06;;;;;;;3.78;3.22;;;22.60;99.90;;;;;;5034698;28;20406;-66
2021/07/04 18:19:31;;;;;;;4.13;3.78;;;22.60;99.90;;;;;;5046299;28;20038;-66
2021/07/04 18:21:57;;;;;;;3.60;3.30;;;22.50;99.90;;;;;;5045024;28;20033;-66
2021/07/04 18:24:23;;;;;;;4.05;3.78;;;22.50;99.90;;;;;;5034216;28;20033;-66
2021/07/04 18:26:50;;;;;;;3.35;3.15;;;22.50;99.90;;;;;;5035158;28;20116;-67
2021/07/04 18:29:16;;;;;;;3.40;3.20;;;22.40;99.90;;;;;;5038226;28;20704;-66
2021/07/04 18:31:43;;;;;;;4.32;3.65;;;22.50;99.90;;;;;;5023095;28;20033;-66
2021/07/04 18:34:12;;;;;;;3.50;3.22;;;22.40;99.90;;;;;;5028170;28;20140;-67
2021/07/04 18:36:38;;;;;;;4.38;3.83;;;22.40;99.90;;;;;;5038076;28;20036;-67
2021/07/04 18:39:05;;;;;;;3.47;3.17;;;22.40;99.90;;;;;;5027899;28;20064;-66
2021/07/04 18:41:31;;;;;;;3.92;3.63;;;22.30;99.90;;;;;;5035230;28;20140;-67
2021/07/04 18:43:57;;;;;;;3.70;3.40;;;22.30;99.90;;;;;;5052854;28;20120;-66
2021/07/04 18:46:22;;;;;;;3.30;3.00;;;22.30;99.90;;;;;;5024715;28;20036;-66
2021/07/04 18:48:48;;;;;;;4.30;3.75;;;22.30;99.90;;;;;;5020188;28;20227;-67
2021/07/04 18:51:14;;;;;;;3.30;3.00;;;22.20;99.90;;;;;;5027152;28;20033;-67
2021/07/04 18:53:41;;;;;;;4.07;3.72;;;22.20;99.90;;;;;;5034100;28;20519;-66
2021/07/04 18:56:07;;;;;;;3.85;3.38;;;22.20;99.90;;;;;;5030302;28;20042;-66
2021/07/04 18:58:33;;;;;;;4.63;3.03;;;22.20;99.90;;;;;;5031899;28;20172;-66
2021/07/04 19:00:59;;;;;;;5.50;3.33;;;22.20;99.90;;;;;;5037464;28;20040;-66
2021/07/04 19:03:24;;;;;;;5.30;2.97;;;22.20;99.90;;;;;;5022876;28;20052;-66
2021/07/04 19:05:53;;;;;;;3.58;2.90;;;22.10;99.90;;;;;;5039184;28;20434;-65